Diaz, Arkansas
Current Conditions -  °F | °C
As of 3:56 PM on Friday 31 Oct 2014 (Local Time) from KM19 Reporting Station
Clear Clear  
Wind Chill: 14°   Ceiling: Unl
Heat Index: 14°   Visibility: 10mi
Dew Point: -8°   Wind: 23mph
Humidity: 22%   Direction: 350°N
Pressure: 30.22"   Gusts: 35mph
Location:  35.64°N, 91.27°W
Report Text: KM19 312056Z AUTO 35020G30KT 10SM CLR 14/M08 A3022 RMK AO2 53001 T01381077 PK WND 36030/2041 SLP233
Loading
Personal Weather Stations






























Interactive Weather Map
Tropical Storm Tracking
New forecast layout! Learn more

10-Day Weather Forecast

Advertisements
Track Severe Weather on mobile